Weather at Dumayr Air Base

Public forecast

Using degrees Celsius for public forecast. Weather courtesy of forecast.io.

Closest aviation weather report (METAR) to Dumayr Air Base

Closest report is Damascus International Airport, 16.7 nm (30.9 km) SW.

2024/05/28 00:00 (retrieved 24 minutes ago)

OSDI 280000Z 00000KT CAVOK 17/13 Q1013

Closest aviation forecast (TAF) to Dumayr Air Base

Forecast is more than 6 hours old.

Closest forecast is Erbil International Airport, 388.5 nm (719.5 km) ENE.

2024/05/27 18:03 (retrieved 6 hours ago)

TAF ORER 271700Z 2718/2818 23004KT 8000 NSC BECMG 2720/2722 VRB02KT